sensor_id;sensor_type;location;lat;lon;timestamp;P1;durP1;ratioP1;P2;durP2;ratioP2
25549;SDS011;13444;50.562;7.262;2022-10-16T00:00:36;4.88;;;2.70;;
25549;SDS011;13444;50.562;7.262;2022-10-16T00:03:04;7.95;;;3.40;;
25549;SDS011;13444;50.562;7.262;2022-10-16T00:05:30;11.00;;;3.17;;
25549;SDS011;13444;50.562;7.262;2022-10-16T00:07:56;7.32;;;2.97;;
25549;SDS011;13444;50.562;7.262;2022-10-16T00:10:22;3.22;;;2.55;;
25549;SDS011;13444;50.562;7.262;2022-10-16T00:12:48;4.25;;;2.42;;
25549;SDS011;13444;50.562;7.262;2022-10-16T00:15:14;4.10;;;2.65;;
25549;SDS011;13444;50.562;7.262;2022-10-16T00:17:39;5.38;;;2.45;;
25549;SDS011;13444;50.562;7.262;2022-10-16T00:20:05;2.83;;;2.00;;
25549;SDS011;13444;50.562;7.262;2022-10-16T00:22:31;5.85;;;2.35;;
25549;SDS011;13444;50.562;7.262;2022-10-16T00:24:57;4.90;;;2.38;;
25549;SDS011;13444;50.562;7.262;2022-10-16T00:27:23;4.90;;;2.35;;
25549;SDS011;13444;50.562;7.262;2022-10-16T00:29:51;3.22;;;1.95;;
25549;SDS011;13444;50.562;7.262;2022-10-16T00:32:20;4.70;;;2.60;;
25549;SDS011;13444;50.562;7.262;2022-10-16T00:34:46;3.63;;;2.40;;
25549;SDS011;13444;50.562;7.262;2022-10-16T00:37:12;6.68;;;2.35;;
25549;SDS011;13444;50.562;7.262;2022-10-16T00:39:38;4.72;;;2.50;;
25549;SDS011;13444;50.562;7.262;2022-10-16T00:42:03;2.85;;;2.25;;
25549;SDS011;13444;50.562;7.262;2022-10-16T00:47:27;3.78;;;2.30;;
25549;SDS011;13444;50.562;7.262;2022-10-16T00:52:41;4.13;;;1.63;;
25549;SDS011;13444;50.562;7.262;2022-10-16T00:55:10;4.03;;;1.73;;
25549;SDS011;13444;50.562;7.262;2022-10-16T00:57:37;2.10;;;1.90;;
25549;SDS011;13444;50.562;7.262;2022-10-16T01:00:04;5.18;;;1.60;;
25549;SDS011;13444;50.562;7.262;2022-10-16T01:02:32;2.35;;;1.70;;
25549;SDS011;13444;50.562;7.262;2022-10-16T01:04:57;4.50;;;1.90;;
25549;SDS011;13444;50.562;7.262;2022-10-16T01:13:06;5.40;;;1.40;;
25549;SDS011;13444;50.562;7.262;2022-10-16T01:19:01;3.00;;;1.50;;
25549;SDS011;13444;50.562;7.262;2022-10-16T01:29:14;3.45;;;1.40;;
25549;SDS011;13444;50.562;7.262;2022-10-16T01:32:09;4.32;;;1.52;;
25549;SDS011;13444;50.562;7.262;2022-10-16T01:34:42;4.80;;;1.58;;
25549;SDS011;13444;50.562;7.262;2022-10-16T01:37:21;2.25;;;1.52;;
25549;SDS011;13444;50.562;7.262;2022-10-16T01:39:54;3.63;;;1.33;;
25549;SDS011;13444;50.562;7.262;2022-10-16T01:42:24;2.53;;;1.50;;
25549;SDS011;13444;50.562;7.262;2022-10-16T01:44:59;1.90;;;1.20;;
25549;SDS011;13444;50.562;7.262;2022-10-16T01:47:26;2.95;;;1.52;;
25549;SDS011;13444;50.562;7.262;2022-10-16T01:49:54;1.80;;;1.60;;
25549;SDS011;13444;50.562;7.262;2022-10-16T01:52:23;2.42;;;1.67;;
25549;SDS011;13444;50.562;7.262;2022-10-16T01:54:52;2.92;;;1.60;;
25549;SDS011;13444;50.562;7.262;2022-10-16T01:57:20;5.20;;;1.83;;
25549;SDS011;13444;50.562;7.262;2022-10-16T01:59:49;2.58;;;1.50;;
25549;SDS011;13444;50.562;7.262;2022-10-16T02:02:18;3.00;;;1.70;;
25549;SDS011;13444;50.562;7.262;2022-10-16T02:04:46;2.22;;;1.60;;
25549;SDS011;13444;50.562;7.262;2022-10-16T02:07:33;2.83;;;1.70;;
25549;SDS011;13444;50.562;7.262;2022-10-16T02:09:59;4.30;;;1.50;;
25549;SDS011;13444;50.562;7.262;2022-10-16T02:12:26;3.30;;;1.80;;
25549;SDS011;13444;50.562;7.262;2022-10-16T02:14:55;3.28;;;1.75;;
25549;SDS011;13444;50.562;7.262;2022-10-16T02:17:21;3.05;;;2.00;;
25549;SDS011;13444;50.562;7.262;2022-10-16T02:19:48;3.65;;;2.00;;
25549;SDS011;13444;50.562;7.262;2022-10-16T02:22:38;2.50;;;1.83;;
25549;SDS011;13444;50.562;7.262;2022-10-16T02:25:07;4.03;;;1.90;;
25549;SDS011;13444;50.562;7.262;2022-10-16T02:27:40;2.22;;;1.70;;
25549;SDS011;13444;50.562;7.262;2022-10-16T02:30:14;2.55;;;1.85;;
25549;SDS011;13444;50.562;7.262;2022-10-16T02:32:48;2.97;;;1.70;;
25549;SDS011;13444;50.562;7.262;2022-10-16T02:35:15;3.97;;;2.25;;
25549;SDS011;13444;50.562;7.262;2022-10-16T02:37:43;3.45;;;2.10;;
25549;SDS011;13444;50.562;7.262;2022-10-16T02:40:10;3.10;;;2.10;;
25549;SDS011;13444;50.562;7.262;2022-10-16T02:42:38;3.50;;;1.98;;
25549;SDS011;13444;50.562;7.262;2022-10-16T02:45:05;4.13;;;1.90;;
25549;SDS011;13444;50.562;7.262;2022-10-16T02:47:32;4.38;;;2.28;;
25549;SDS011;13444;50.562;7.262;2022-10-16T02:49:58;5.40;;;2.28;;
25549;SDS011;13444;50.562;7.262;2022-10-16T02:52:24;5.40;;;1.90;;
25549;SDS011;13444;50.562;7.262;2022-10-16T02:54:49;3.53;;;1.67;;
25549;SDS011;13444;50.562;7.262;2022-10-16T02:57:15;4.90;;;1.80;;
25549;SDS011;13444;50.562;7.262;2022-10-16T02:59:41;3.22;;;1.70;;
25549;SDS011;13444;50.562;7.262;2022-10-16T03:02:06;4.30;;;1.48;;
25549;SDS011;13444;50.562;7.262;2022-10-16T03:04:32;5.15;;;1.65;;
25549;SDS011;13444;50.562;7.262;2022-10-16T03:06:57;3.33;;;1.50;;
25549;SDS011;13444;50.562;7.262;2022-10-16T03:09:23;7.75;;;1.60;;
25549;SDS011;13444;50.562;7.262;2022-10-16T03:11:48;3.80;;;1.42;;
25549;SDS011;13444;50.562;7.262;2022-10-16T03:14:14;4.80;;;1.73;;
25549;SDS011;13444;50.562;7.262;2022-10-16T03:16:39;1.80;;;1.50;;
25549;SDS011;13444;50.562;7.262;2022-10-16T03:19:05;3.92;;;1.38;;
25549;SDS011;13444;50.562;7.262;2022-10-16T03:21:30;5.07;;;1.42;;
25549;SDS011;13444;50.562;7.262;2022-10-16T03:23:56;6.57;;;1.77;;
25549;SDS011;13444;50.562;7.262;2022-10-16T03:26:21;6.80;;;1.95;;
25549;SDS011;13444;50.562;7.262;2022-10-16T03:28:47;3.38;;;1.60;;
25549;SDS011;13444;50.562;7.262;2022-10-16T03:31:13;5.57;;;2.40;;
25549;SDS011;13444;50.562;7.262;2022-10-16T03:33:38;2.60;;;1.63;;
25549;SDS011;13444;50.562;7.262;2022-10-16T03:36:04;2.45;;;1.52;;
25549;SDS011;13444;50.562;7.262;2022-10-16T03:38:29;4.32;;;1.55;;
25549;SDS011;13444;50.562;7.262;2022-10-16T03:40:55;1.98;;;1.50;;
25549;SDS011;13444;50.562;7.262;2022-10-16T03:43:20;2.03;;;1.30;;
25549;SDS011;13444;50.562;7.262;2022-10-16T03:45:46;4.00;;;1.42;;
25549;SDS011;13444;50.562;7.262;2022-10-16T03:48:12;4.60;;;1.70;;
25549;SDS011;13444;50.562;7.262;2022-10-16T03:50:37;3.05;;;1.67;;
25549;SDS011;13444;50.562;7.262;2022-10-16T03:53:03;2.05;;;1.35;;
25549;SDS011;13444;50.562;7.262;2022-10-16T03:55:28;2.95;;;1.42;;
25549;SDS011;13444;50.562;7.262;2022-10-16T03:57:54;4.35;;;1.83;;
25549;SDS011;13444;50.562;7.262;2022-10-16T04:00:19;6.25;;;1.90;;
25549;SDS011;13444;50.562;7.262;2022-10-16T04:02:45;4.88;;;2.05;;
25549;SDS011;13444;50.562;7.262;2022-10-16T04:05:10;5.00;;;1.92;;
25549;SDS011;13444;50.562;7.262;2022-10-16T04:07:36;6.90;;;1.77;;
25549;SDS011;13444;50.562;7.262;2022-10-16T04:10:03;5.20;;;2.05;;
25549;SDS011;13444;50.562;7.262;2022-10-16T04:12:29;2.08;;;1.88;;
25549;SDS011;13444;50.562;7.262;2022-10-16T04:14:54;5.10;;;1.77;;
25549;SDS011;13444;50.562;7.262;2022-10-16T04:17:20;2.25;;;1.98;;
25549;SDS011;13444;50.562;7.262;2022-10-16T04:19:45;4.88;;;2.10;;
25549;SDS011;13444;50.562;7.262;2022-10-16T04:22:11;6.78;;;1.90;;
25549;SDS011;13444;50.562;7.262;2022-10-16T04:24:36;2.67;;;1.70;;
25549;SDS011;13444;50.562;7.262;2022-10-16T04:27:02;3.38;;;1.95;;
25549;SDS011;13444;50.562;7.262;2022-10-16T04:29:27;3.40;;;1.90;;
25549;SDS011;13444;50.562;7.262;2022-10-16T04:31:53;2.58;;;2.00;;
25549;SDS011;13444;50.562;7.262;2022-10-16T04:34:18;4.07;;;2.20;;
25549;SDS011;13444;50.562;7.262;2022-10-16T04:36:46;5.10;;;2.47;;
25549;SDS011;13444;50.562;7.262;2022-10-16T04:39:13;6.20;;;2.22;;
25549;SDS011;13444;50.562;7.262;2022-10-16T04:41:39;6.07;;;2.17;;
25549;SDS011;13444;50.562;7.262;2022-10-16T04:44:04;6.00;;;2.88;;
25549;SDS011;13444;50.562;7.262;2022-10-16T04:46:30;3.80;;;2.33;;
25549;SDS011;13444;50.562;7.262;2022-10-16T04:48:55;7.80;;;2.10;;
25549;SDS011;13444;50.562;7.262;2022-10-16T04:51:21;3.80;;;2.25;;
25549;SDS011;13444;50.562;7.262;2022-10-16T04:53:46;4.70;;;2.33;;
25549;SDS011;13444;50.562;7.262;2022-10-16T04:56:12;2.60;;;2.30;;
25549;SDS011;13444;50.562;7.262;2022-10-16T04:58:37;7.72;;;2.70;;
25549;SDS011;13444;50.562;7.262;2022-10-16T05:01:03;7.35;;;2.53;;
25549;SDS011;13444;50.562;7.262;2022-10-16T05:03:29;4.60;;;2.53;;
25549;SDS011;13444;50.562;7.262;2022-10-16T05:05:54;4.55;;;2.50;;
25549;SDS011;13444;50.562;7.262;2022-10-16T05:08:20;3.20;;;2.15;;
25549;SDS011;13444;50.562;7.262;2022-10-16T05:10:45;5.20;;;2.58;;
25549;SDS011;13444;50.562;7.262;2022-10-16T05:13:11;6.70;;;2.80;;
25549;SDS011;13444;50.562;7.262;2022-10-16T05:15:37;7.55;;;3.08;;
25549;SDS011;13444;50.562;7.262;2022-10-16T05:18:02;5.53;;;3.05;;
25549;SDS011;13444;50.562;7.262;2022-10-16T05:20:28;6.53;;;2.95;;
25549;SDS011;13444;50.562;7.262;2022-10-16T05:22:53;6.22;;;2.78;;
25549;SDS011;13444;50.562;7.262;2022-10-16T05:25:19;6.43;;;2.50;;
25549;SDS011;13444;50.562;7.262;2022-10-16T05:27:47;5.82;;;2.08;;
25549;SDS011;13444;50.562;7.262;2022-10-16T05:30:14;4.03;;;2.13;;
25549;SDS011;13444;50.562;7.262;2022-10-16T05:32:40;7.00;;;1.70;;
25549;SDS011;13444;50.562;7.262;2022-10-16T05:35:06;2.78;;;1.63;;
25549;SDS011;13444;50.562;7.262;2022-10-16T05:37:32;5.85;;;1.80;;
25549;SDS011;13444;50.562;7.262;2022-10-16T05:39:57;2.58;;;1.40;;
25549;SDS011;13444;50.562;7.262;2022-10-16T05:42:23;1.40;;;1.30;;
25549;SDS011;13444;50.562;7.262;2022-10-16T05:44:48;3.00;;;1.85;;
25549;SDS011;13444;50.562;7.262;2022-10-16T05:47:14;3.17;;;1.77;;
25549;SDS011;13444;50.562;7.262;2022-10-16T05:49:39;3.78;;;1.65;;
25549;SDS011;13444;50.562;7.262;2022-10-16T05:52:05;4.93;;;1.67;;
25549;SDS011;13444;50.562;7.262;2022-10-16T05:54:31;3.72;;;1.70;;
25549;SDS011;13444;50.562;7.262;2022-10-16T05:56:56;1.75;;;1.50;;
25549;SDS011;13444;50.562;7.262;2022-10-16T05:59:22;1.52;;;1.40;;
25549;SDS011;13444;50.562;7.262;2022-10-16T06:01:48;4.63;;;1.48;;
25549;SDS011;13444;50.562;7.262;2022-10-16T06:04:14;1.48;;;1.30;;
25549;SDS011;13444;50.562;7.262;2022-10-16T06:06:39;2.42;;;1.33;;
25549;SDS011;13444;50.562;7.262;2022-10-16T06:09:05;3.00;;;1.48;;
25549;SDS011;13444;50.562;7.262;2022-10-16T06:11:31;2.45;;;1.50;;
25549;SDS011;13444;50.562;7.262;2022-10-16T06:14:00;2.55;;;1.50;;
25549;SDS011;13444;50.562;7.262;2022-10-16T06:16:31;2.50;;;1.40;;
25549;SDS011;13444;50.562;7.262;2022-10-16T06:18:57;7.03;;;1.63;;
25549;SDS011;13444;50.562;7.262;2022-10-16T06:21:24;5.45;;;1.77;;
25549;SDS011;13444;50.562;7.262;2022-10-16T06:23:51;3.63;;;1.50;;
25549;SDS011;13444;50.562;7.262;2022-10-16T06:26:18;6.38;;;1.92;;
25549;SDS011;13444;50.562;7.262;2022-10-16T06:28:45;1.92;;;1.40;;
25549;SDS011;13444;50.562;7.262;2022-10-16T06:31:12;3.53;;;1.50;;
25549;SDS011;13444;50.562;7.262;2022-10-16T06:33:38;6.40;;;1.70;;
25549;SDS011;13444;50.562;7.262;2022-10-16T06:36:08;3.08;;;1.90;;
25549;SDS011;13444;50.562;7.262;2022-10-16T06:38:36;3.58;;;1.83;;
25549;SDS011;13444;50.562;7.262;2022-10-16T06:41:02;5.15;;;1.77;;
25549;SDS011;13444;50.562;7.262;2022-10-16T06:43:29;3.63;;;1.70;;
25549;SDS011;13444;50.562;7.262;2022-10-16T06:46:00;4.47;;;1.80;;
25549;SDS011;13444;50.562;7.262;2022-10-16T06:48:26;3.85;;;1.30;;
25549;SDS011;13444;50.562;7.262;2022-10-16T06:50:59;2.55;;;1.30;;
25549;SDS011;13444;50.562;7.262;2022-10-16T06:53:25;4.65;;;1.50;;
25549;SDS011;13444;50.562;7.262;2022-10-16T06:55:52;1.52;;;1.10;;
25549;SDS011;13444;50.562;7.262;2022-10-16T06:58:18;2.10;;;1.10;;
25549;SDS011;13444;50.562;7.262;2022-10-16T07:00:44;1.33;;;1.00;;
25549;SDS011;13444;50.562;7.262;2022-10-16T07:03:09;1.58;;;1.10;;
25549;SDS011;13444;50.562;7.262;2022-10-16T07:05:38;3.15;;;1.10;;
25549;SDS011;13444;50.562;7.262;2022-10-16T07:08:04;3.17;;;1.20;;
25549;SDS011;13444;50.562;7.262;2022-10-16T07:10:30;1.95;;;1.13;;
25549;SDS011;13444;50.562;7.262;2022-10-16T07:12:56;2.67;;;1.17;;
25549;SDS011;13444;50.562;7.262;2022-10-16T07:15:22;2.33;;;1.05;;
25549;SDS011;13444;50.562;7.262;2022-10-16T07:17:48;2.83;;;1.15;;
25549;SDS011;13444;50.562;7.262;2022-10-16T07:20:13;2.95;;;1.00;;
25549;SDS011;13444;50.562;7.262;2022-10-16T07:22:39;2.47;;;0.98;;
25549;SDS011;13444;50.562;7.262;2022-10-16T07:25:04;2.00;;;0.98;;
25549;SDS011;13444;50.562;7.262;2022-10-16T07:27:30;2.78;;;1.10;;
25549;SDS011;13444;50.562;7.262;2022-10-16T07:29:56;1.88;;;1.15;;
25549;SDS011;13444;50.562;7.262;2022-10-16T07:32:21;1.77;;;1.10;;
25549;SDS011;13444;50.562;7.262;2022-10-16T07:34:47;3.10;;;1.60;;
25549;SDS011;13444;50.562;7.262;2022-10-16T07:37:12;1.40;;;1.00;;
25549;SDS011;13444;50.562;7.262;2022-10-16T07:39:38;1.75;;;1.00;;
25549;SDS011;13444;50.562;7.262;2022-10-16T07:42:03;1.27;;;1.08;;
25549;SDS011;13444;50.562;7.262;2022-10-16T07:44:29;1.13;;;0.93;;
25549;SDS011;13444;50.562;7.262;2022-10-16T07:46:57;1.75;;;1.08;;
25549;SDS011;13444;50.562;7.262;2022-10-16T07:49:22;1.45;;;0.95;;
25549;SDS011;13444;50.562;7.262;2022-10-16T07:51:48;1.20;;;1.05;;
25549;SDS011;13444;50.562;7.262;2022-10-16T07:54:14;2.03;;;1.15;;
25549;SDS011;13444;50.562;7.262;2022-10-16T07:56:39;1.48;;;1.15;;
25549;SDS011;13444;50.562;7.262;2022-10-16T07:59:05;1.30;;;0.80;;
25549;SDS011;13444;50.562;7.262;2022-10-16T08:01:30;2.17;;;1.05;;
25549;SDS011;13444;50.562;7.262;2022-10-16T08:03:56;1.63;;;1.20;;
25549;SDS011;13444;50.562;7.262;2022-10-16T08:06:21;3.03;;;1.00;;
25549;SDS011;13444;50.562;7.262;2022-10-16T08:08:47;0.98;;;0.88;;
25549;SDS011;13444;50.562;7.262;2022-10-16T08:11:13;1.38;;;0.70;;
25549;SDS011;13444;50.562;7.262;2022-10-16T08:13:39;3.05;;;0.90;;
25549;SDS011;13444;50.562;7.262;2022-10-16T08:16:05;2.53;;;0.88;;
25549;SDS011;13444;50.562;7.262;2022-10-16T08:18:33;1.73;;;0.85;;
25549;SDS011;13444;50.562;7.262;2022-10-16T08:21:00;1.45;;;0.85;;
25549;SDS011;13444;50.562;7.262;2022-10-16T08:23:26;2.25;;;0.95;;
25549;SDS011;13444;50.562;7.262;2022-10-16T08:25:53;0.85;;;0.85;;
25549;SDS011;13444;50.562;7.262;2022-10-16T08:28:19;2.35;;;0.70;;
25549;SDS011;13444;50.562;7.262;2022-10-16T08:30:45;3.25;;;1.00;;
25549;SDS011;13444;50.562;7.262;2022-10-16T08:33:10;2.00;;;0.60;;
25549;SDS011;13444;50.562;7.262;2022-10-16T08:35:36;1.35;;;0.88;;
25549;SDS011;13444;50.562;7.262;2022-10-16T08:38:05;1.23;;;0.75;;
25549;SDS011;13444;50.562;7.262;2022-10-16T08:40:31;2.78;;;0.68;;
25549;SDS011;13444;50.562;7.262;2022-10-16T08:48:45;1.85;;;0.45;;
25549;SDS011;13444;50.562;7.262;2022-10-16T08:51:16;2.97;;;0.60;;
25549;SDS011;13444;50.562;7.262;2022-10-16T08:53:56;1.63;;;0.60;;
25549;SDS011;13444;50.562;7.262;2022-10-16T08:56:24;1.55;;;0.60;;
25549;SDS011;13444;50.562;7.262;2022-10-16T08:58:51;2.63;;;0.80;;
25549;SDS011;13444;50.562;7.262;2022-10-16T09:01:18;1.02;;;0.70;;
25549;SDS011;13444;50.562;7.262;2022-10-16T09:03:49;0.70;;;0.70;;
25549;SDS011;13444;50.562;7.262;2022-10-16T09:06:46;1.65;;;0.80;;
25549;SDS011;13444;50.562;7.262;2022-10-16T09:11:53;2.00;;;1.08;;
25549;SDS011;13444;50.562;7.262;2022-10-16T09:17:19;3.08;;;0.75;;
25549;SDS011;13444;50.562;7.262;2022-10-16T09:19:54;3.08;;;0.73;;
25549;SDS011;13444;50.562;7.262;2022-10-16T09:22:27;1.00;;;0.60;;
25549;SDS011;13444;50.562;7.262;2022-10-16T09:24:58;1.25;;;0.70;;
25549;SDS011;13444;50.562;7.262;2022-10-16T09:27:26;1.00;;;0.68;;
25549;SDS011;13444;50.562;7.262;2022-10-16T09:29:51;1.90;;;0.80;;
25549;SDS011;13444;50.562;7.262;2022-10-16T09:32:19;1.10;;;0.82;;
25549;SDS011;13444;50.562;7.262;2022-10-16T09:34:52;1.30;;;0.73;;
25549;SDS011;13444;50.562;7.262;2022-10-16T09:37:22;2.25;;;0.77;;
25549;SDS011;13444;50.562;7.262;2022-10-16T09:39:50;2.75;;;0.57;;
25549;SDS011;13444;50.562;7.262;2022-10-16T09:42:20;0.90;;;0.77;;
25549;SDS011;13444;50.562;7.262;2022-10-16T09:44:53;0.57;;;0.50;;
25549;SDS011;13444;50.562;7.262;2022-10-16T09:47:23;0.77;;;0.50;;
25549;SDS011;13444;50.562;7.262;2022-10-16T09:49:51;1.15;;;0.60;;
25549;SDS011;13444;50.562;7.262;2022-10-16T09:52:21;2.55;;;0.60;;
25549;SDS011;13444;50.562;7.262;2022-10-16T09:54:57;3.55;;;0.60;;
25549;SDS011;13444;50.562;7.262;2022-10-16T09:57:25;1.67;;;0.75;;
25549;SDS011;13444;50.562;7.262;2022-10-16T09:59:55;1.33;;;0.55;;
25549;SDS011;13444;50.562;7.262;2022-10-16T10:05:00;4.32;;;0.60;;
25549;SDS011;13444;50.562;7.262;2022-10-16T10:07:27;5.32;;;0.50;;
25549;SDS011;13444;50.562;7.262;2022-10-16T10:09:59;2.20;;;0.45;;
25549;SDS011;13444;50.562;7.262;2022-10-16T10:12:29;2.15;;;0.52;;
25549;SDS011;13444;50.562;7.262;2022-10-16T10:15:04;0.60;;;0.47;;
25549;SDS011;13444;50.562;7.262;2022-10-16T10:17:46;1.10;;;0.35;;
25549;SDS011;13444;50.562;7.262;2022-10-16T10:22:59;1.77;;;0.43;;
25549;SDS011;13444;50.562;7.262;2022-10-16T10:30:59;1.30;;;0.50;;
25549;SDS011;13444;50.562;7.262;2022-10-16T10:33:43;0.63;;;0.30;;
25549;SDS011;13444;50.562;7.262;2022-10-16T10:36:33;2.15;;;0.45;;
25549;SDS011;13444;50.562;7.262;2022-10-16T10:39:15;1.50;;;0.40;;
25549;SDS011;13444;50.562;7.262;2022-10-16T10:46:56;0.75;;;0.40;;
25549;SDS011;13444;50.562;7.262;2022-10-16T10:52:20;0.88;;;0.47;;
25549;SDS011;13444;50.562;7.262;2022-10-16T10:57:52;3.05;;;0.52;;
25549;SDS011;13444;50.562;7.262;2022-10-16T11:00:23;2.67;;;0.70;;
25549;SDS011;13444;50.562;7.262;2022-10-16T11:03:03;1.58;;;0.50;;
25549;SDS011;13444;50.562;7.262;2022-10-16T11:08:11;3.08;;;0.73;;
25549;SDS011;13444;50.562;7.262;2022-10-16T11:10:57;2.33;;;0.47;;
25549;SDS011;13444;50.562;7.262;2022-10-16T11:13:51;0.40;;;0.38;;
25549;SDS011;13444;50.562;7.262;2022-10-16T11:19:35;0.70;;;0.40;;
25549;SDS011;13444;50.562;7.262;2022-10-16T11:27:50;1.73;;;0.35;;
25549;SDS011;13444;50.562;7.262;2022-10-16T11:30:39;1.15;;;0.50;;
25549;SDS011;13444;50.562;7.262;2022-10-16T11:36:03;0.40;;;0.40;;
25549;SDS011;13444;50.562;7.262;2022-10-16T11:41:22;1.95;;;0.70;;
25549;SDS011;13444;50.562;7.262;2022-10-16T11:44:12;3.88;;;0.90;;
25549;SDS011;13444;50.562;7.262;2022-10-16T11:53:01;2.53;;;0.52;;
25549;SDS011;13444;50.562;7.262;2022-10-16T11:55:52;2.92;;;0.70;;
25549;SDS011;13444;50.562;7.262;2022-10-16T11:58:20;1.25;;;0.50;;
25549;SDS011;13444;50.562;7.262;2022-10-16T12:01:00;1.38;;;0.50;;
25549;SDS011;13444;50.562;7.262;2022-10-16T12:03:36;1.45;;;0.43;;
25549;SDS011;13444;50.562;7.262;2022-10-16T12:06:15;0.88;;;0.40;;
25549;SDS011;13444;50.562;7.262;2022-10-16T12:09:04;1.05;;;0.50;;
25549;SDS011;13444;50.562;7.262;2022-10-16T12:11:34;1.08;;;0.40;;
25549;SDS011;13444;50.562;7.262;2022-10-16T12:14:06;1.58;;;0.50;;
25549;SDS011;13444;50.562;7.262;2022-10-16T12:16:32;1.10;;;0.55;;
25549;SDS011;13444;50.562;7.262;2022-10-16T12:19:10;0.60;;;0.50;;
25549;SDS011;13444;50.562;7.262;2022-10-16T12:21:40;1.05;;;0.68;;
25549;SDS011;13444;50.562;7.262;2022-10-16T12:24:18;0.68;;;0.55;;
25549;SDS011;13444;50.562;7.262;2022-10-16T12:27:03;0.75;;;0.63;;
25549;SDS011;13444;50.562;7.262;2022-10-16T12:29:41;1.52;;;0.73;;
25549;SDS011;13444;50.562;7.262;2022-10-16T12:35:04;1.08;;;0.60;;
25549;SDS011;13444;50.562;7.262;2022-10-16T12:37:41;1.13;;;0.52;;
25549;SDS011;13444;50.562;7.262;2022-10-16T12:40:15;1.60;;;0.50;;
25549;SDS011;13444;50.562;7.262;2022-10-16T12:42:50;1.88;;;0.60;;
25549;SDS011;13444;50.562;7.262;2022-10-16T12:45:29;2.92;;;0.75;;
25549;SDS011;13444;50.562;7.262;2022-10-16T12:47:57;2.90;;;0.80;;
25549;SDS011;13444;50.562;7.262;2022-10-16T12:52:59;2.28;;;0.73;;
25549;SDS011;13444;50.562;7.262;2022-10-16T12:55:26;0.75;;;0.63;;
25549;SDS011;13444;50.562;7.262;2022-10-16T12:58:06;1.83;;;0.70;;
25549;SDS011;13444;50.562;7.262;2022-10-16T13:00:56;1.17;;;0.40;;
25549;SDS011;13444;50.562;7.262;2022-10-16T13:08:58;2.53;;;0.60;;
25549;SDS011;13444;50.562;7.262;2022-10-16T13:17:36;1.42;;;0.70;;
25549;SDS011;13444;50.562;7.262;2022-10-16T13:20:28;1.70;;;0.73;;
25549;SDS011;13444;50.562;7.262;2022-10-16T13:28:28;0.85;;;0.50;;
25549;SDS011;13444;50.562;7.262;2022-10-16T13:30:57;2.33;;;0.60;;
25549;SDS011;13444;50.562;7.262;2022-10-16T13:33:37;1.88;;;0.55;;
25549;SDS011;13444;50.562;7.262;2022-10-16T13:36:06;2.63;;;0.60;;
25549;SDS011;13444;50.562;7.262;2022-10-16T13:38:35;1.27;;;0.57;;
25549;SDS011;13444;50.562;7.262;2022-10-16T13:41:02;0.90;;;0.60;;
25549;SDS011;13444;50.562;7.262;2022-10-16T13:43:52;1.38;;;0.55;;
25549;SDS011;13444;50.562;7.262;2022-10-16T13:46:21;2.15;;;0.70;;
25549;SDS011;13444;50.562;7.262;2022-10-16T13:48:58;5.55;;;1.00;;
25549;SDS011;13444;50.562;7.262;2022-10-16T13:51:25;2.38;;;0.65;;
25549;SDS011;13444;50.562;7.262;2022-10-16T13:53:51;1.48;;;0.60;;
25549;SDS011;13444;50.562;7.262;2022-10-16T13:56:17;2.35;;;0.70;;
25549;SDS011;13444;50.562;7.262;2022-10-16T13:58:45;1.20;;;0.60;;
25549;SDS011;13444;50.562;7.262;2022-10-16T14:01:23;0.45;;;0.40;;
25549;SDS011;13444;50.562;7.262;2022-10-16T14:04:06;2.53;;;0.60;;
25549;SDS011;13444;50.562;7.262;2022-10-16T14:06:34;6.53;;;0.80;;
25549;SDS011;13444;50.562;7.262;2022-10-16T14:09:04;4.70;;;0.70;;
25549;SDS011;13444;50.562;7.262;2022-10-16T14:11:52;3.70;;;0.40;;
25549;SDS011;13444;50.562;7.262;2022-10-16T14:14:20;1.13;;;0.50;;
25549;SDS011;13444;50.562;7.262;2022-10-16T14:16:47;0.90;;;0.57;;
25549;SDS011;13444;50.562;7.262;2022-10-16T14:19:24;1.00;;;0.57;;
25549;SDS011;13444;50.562;7.262;2022-10-16T14:21:51;0.75;;;0.50;;
25549;SDS011;13444;50.562;7.262;2022-10-16T14:26:56;0.40;;;0.40;;
25549;SDS011;13444;50.562;7.262;2022-10-16T14:29:22;1.20;;;0.60;;
25549;SDS011;13444;50.562;7.262;2022-10-16T14:32:02;1.77;;;0.82;;
25549;SDS011;13444;50.562;7.262;2022-10-16T14:34:36;1.60;;;0.40;;
25549;SDS011;13444;50.562;7.262;2022-10-16T14:39:51;1.15;;;0.50;;
25549;SDS011;13444;50.562;7.262;2022-10-16T14:42:18;1.00;;;0.90;;
25549;SDS011;13444;50.562;7.262;2022-10-16T14:44:48;0.73;;;0.70;;
25549;SDS011;13444;50.562;7.262;2022-10-16T14:47:18;2.60;;;0.80;;
25549;SDS011;13444;50.562;7.262;2022-10-16T14:49:51;1.83;;;0.85;;
25549;SDS011;13444;50.562;7.262;2022-10-16T14:52:18;0.70;;;0.60;;
25549;SDS011;13444;50.562;7.262;2022-10-16T14:54:43;1.13;;;0.80;;
25549;SDS011;13444;50.562;7.262;2022-10-16T14:57:15;1.15;;;0.60;;
25549;SDS011;13444;50.562;7.262;2022-10-16T14:59:43;2.03;;;0.57;;
25549;SDS011;13444;50.562;7.262;2022-10-16T15:04:54;1.55;;;0.77;;
25549;SDS011;13444;50.562;7.262;2022-10-16T15:07:21;4.40;;;0.70;;
25549;SDS011;13444;50.562;7.262;2022-10-16T15:09:46;2.85;;;0.68;;
25549;SDS011;13444;50.562;7.262;2022-10-16T15:12:12;2.00;;;0.77;;
25549;SDS011;13444;50.562;7.262;2022-10-16T15:14:38;1.88;;;0.60;;
25549;SDS011;13444;50.562;7.262;2022-10-16T15:17:03;4.97;;;0.70;;
25549;SDS011;13444;50.562;7.262;2022-10-16T15:19:29;5.50;;;1.00;;
25549;SDS011;13444;50.562;7.262;2022-10-16T15:21:55;1.40;;;1.10;;
25549;SDS011;13444;50.562;7.262;2022-10-16T15:24:21;0.73;;;0.70;;
25549;SDS011;13444;50.562;7.262;2022-10-16T15:26:47;2.22;;;0.80;;
25549;SDS011;13444;50.562;7.262;2022-10-16T15:29:13;1.65;;;0.88;;
25549;SDS011;13444;50.562;7.262;2022-10-16T15:31:39;2.75;;;1.45;;
25549;SDS011;13444;50.562;7.262;2022-10-16T15:34:08;2.63;;;1.35;;
25549;SDS011;13444;50.562;7.262;2022-10-16T15:36:34;2.17;;;1.20;;
25549;SDS011;13444;50.562;7.262;2022-10-16T15:39:05;1.25;;;0.65;;
25549;SDS011;13444;50.562;7.262;2022-10-16T15:41:37;2.80;;;0.70;;
25549;SDS011;13444;50.562;7.262;2022-10-16T15:44:02;0.60;;;0.50;;
25549;SDS011;13444;50.562;7.262;2022-10-16T15:46:28;0.98;;;0.63;;
25549;SDS011;13444;50.562;7.262;2022-10-16T15:48:56;1.23;;;0.68;;
25549;SDS011;13444;50.562;7.262;2022-10-16T15:51:23;1.17;;;0.52;;
25549;SDS011;13444;50.562;7.262;2022-10-16T15:53:49;1.00;;;0.70;;
25549;SDS011;13444;50.562;7.262;2022-10-16T15:56:16;2.67;;;0.82;;
25549;SDS011;13444;50.562;7.262;2022-10-16T15:58:42;2.25;;;0.60;;
25549;SDS011;13444;50.562;7.262;2022-10-16T16:01:08;1.98;;;1.20;;
25549;SDS011;13444;50.562;7.262;2022-10-16T16:03:35;0.88;;;0.85;;
25549;SDS011;13444;50.562;7.262;2022-10-16T16:06:09;3.20;;;0.98;;
25549;SDS011;13444;50.562;7.262;2022-10-16T16:08:36;1.73;;;0.70;;
25549;SDS011;13444;50.562;7.262;2022-10-16T16:11:11;1.23;;;0.63;;
25549;SDS011;13444;50.562;7.262;2022-10-16T16:13:39;4.03;;;0.90;;
25549;SDS011;13444;50.562;7.262;2022-10-16T16:16:06;2.17;;;1.02;;
25549;SDS011;13444;50.562;7.262;2022-10-16T16:18:33;1.67;;;1.48;;
25549;SDS011;13444;50.562;7.262;2022-10-16T16:20:58;1.50;;;1.10;;
25549;SDS011;13444;50.562;7.262;2022-10-16T16:23:24;2.30;;;0.70;;
25549;SDS011;13444;50.562;7.262;2022-10-16T16:28:34;1.52;;;0.82;;
25549;SDS011;13444;50.562;7.262;2022-10-16T16:31:00;4.05;;;0.90;;
25549;SDS011;13444;50.562;7.262;2022-10-16T16:33:26;3.03;;;0.80;;
25549;SDS011;13444;50.562;7.262;2022-10-16T16:35:55;1.58;;;0.75;;
25549;SDS011;13444;50.562;7.262;2022-10-16T16:38:22;1.48;;;0.88;;
25549;SDS011;13444;50.562;7.262;2022-10-16T16:40:47;1.17;;;0.77;;
25549;SDS011;13444;50.562;7.262;2022-10-16T16:43:13;0.93;;;0.80;;
25549;SDS011;13444;50.562;7.262;2022-10-16T16:45:38;1.58;;;0.73;;
25549;SDS011;13444;50.562;7.262;2022-10-16T16:48:04;2.05;;;0.90;;
25549;SDS011;13444;50.562;7.262;2022-10-16T16:50:34;2.95;;;0.90;;